Calgary International Airport
CYYC : now visible

Airfield :











YOU CAN JOIN US ON...

 
LOGIN :

Register | Disclaimer

   EN    FR    IT 

 









Legend :    VFR   Marginal VFR   IFR   Intensive IFR   Very Intensive IFR
Visi :
Ceiling :
>= 8 km
>= 3000ft
5 to 8 km
1000 to 3000 ft
1500m to 5 km
500 to 1000 ft
800 to 1500m
200 to 500 ft
< 800m
< 200 ft
Symbols :   Thunderstorms  Fog  Heavy snow  Heavy precipitations  Wind > 20 kt






- Airport Elevation : 3557 ft
- IATA code : YYC


CYYC - Calgary International

CURRENT METAR :
  • 291800Z 19003KT 130V220 40SM SKC M20/M26 A3033 RMK SLP380

EXPIRED METARs :
  • 291700Z 32008KT 40SM SKC M19/M25 A3035 RMK SLP388
  • 291600Z 31007KT 40SM SKC M20/M26 A3035 RMK SLP393

TAF TAF CYYC
Valid from the 29 at 18:00 until the 30 at 18:00 UTC


291740Z 2918/3018 32008KT P6SM SKC
BECMG 2919/2921 21010KT
BECMG 3003/3005 32010KT
FM300600 34012G22KT P6SM OVC040
TEMPO 3006/3014 2SM -SN VV020
PROB30 3006/3014 3/4SM -SHSN BLSN VV010
FM301400 30008KT P6SM BKN030
TEMPO 3014/3017 6SM -SN
FM301700 24008KT P6SM FEW040 RMK NXT FCST BY 292100Z
CZEG FIR / North America



MET'MAP, your aeronautical weather chart ! - Copyright ORBIFLY December 2007 - Disclaimer

ORBIFLY MET'MAP TEAM :

Programming & Development : Alexandra Zaïnal
Original concept : Baudouin d'Aumeries
Technical & hardware support : Manuel Goepfert
Assistance : Marc-Olivier Méhu




SOURCES & CREDITS :

   NOAA       Earth
Advisory